Time;durP1;ratioP1;P1;durP2;ratioP2;P2;SDS_P1;SDS_P2;PMS_P1;PMS_P2;Temp;Humidity;BMP_temperature;BMP_pressure;BME280_temperature;BME280_humidity;BME280_pressure;Samples;Min_cycle;Max_cycle;Signal;HPM_P1;HPM_P2
2022/05/31 00:01:08;;;;;;;6.60;2.55;;;;;;;16.98;55.10;98586.19;4502929;31;20125;-78
2022/05/31 00:03:34;;;;;;;9.95;2.92;;;;;;;16.68;56.01;98589.56;4488745;31;20403;-78
2022/05/31 00:05:59;;;;;;;6.85;2.30;;;;;;;16.84;55.57;98586.50;4488440;31;20134;-78
2022/05/31 00:08:25;;;;;;;8.63;2.78;;;;;;;16.73;55.96;98578.53;4503100;31;20114;-78
2022/05/31 00:10:50;;;;;;;6.85;2.12;;;;;;;16.62;56.28;98574.94;4488534;31;20091;-78
2022/05/31 00:13:16;;;;;;;7.12;2.20;;;;;;;16.84;55.63;98566.06;4503011;31;20141;-78
2022/05/31 00:15:41;;;;;;;8.25;2.40;;;;;;;16.86;55.57;98576.56;4503088;31;20092;-78
2022/05/31 00:18:08;;;;;;;7.65;2.60;;;;;;;16.79;55.70;98584.19;4488830;31;20173;-78
2022/05/31 00:20:34;;;;;;;6.10;2.45;;;;;;;16.73;55.77;98579.41;4503104;31;20110;-78
2022/05/31 00:22:59;;;;;;;7.07;2.30;;;;;;;16.80;55.58;98574.38;4503191;31;20073;-78
2022/05/31 00:25:24;;;;;;;8.00;2.70;;;;;;;16.81;55.55;98579.59;4502663;31;20149;-78
2022/05/31 00:27:50;;;;;;;6.65;2.47;;;;;;;16.73;55.78;98586.50;4488178;31;20160;-78
2022/05/31 00:30:16;;;;;;;6.90;2.50;;;;;;;16.34;56.86;98584.37;4503093;31;20130;-78
2022/05/31 00:32:48;;;;;;;5.70;2.35;;;;;;;16.34;56.83;98588.81;4502740;31;20108;-78
2022/05/31 00:35:21;;;;;;;5.60;2.17;;;;;;;16.56;56.12;98593.25;4488625;31;20100;-78
2022/05/31 00:37:47;;;;;;;7.57;2.30;;;;;;;16.64;55.92;98591.63;4488577;31;20100;-78
2022/05/31 00:40:14;;;;;;;6.60;2.55;;;;;;;16.67;55.72;98593.22;4488393;31;20103;-78
2022/05/31 00:42:53;;;;;;;6.40;2.12;;;;;;;16.68;55.73;98598.37;4488445;31;20103;-78
2022/05/31 00:45:20;;;;;;;6.05;2.25;;;;;;;16.68;55.61;98601.03;4488284;31;20100;-78
2022/05/31 00:47:46;;;;;;;7.67;2.50;;;;;;;16.56;55.70;98601.22;4502698;31;20122;-78
2022/05/31 00:50:23;;;;;;;7.25;2.50;;;;;;;16.04;57.35;98611.59;4488374;31;20103;-77
2022/05/31 00:52:51;;;;;;;7.20;2.20;;;;;;;16.44;56.21;98605.72;4488659;31;20154;-77
2022/05/31 00:55:18;;;;;;;6.28;1.87;;;;;;;16.54;55.86;98608.47;4488553;31;20121;-77
2022/05/31 00:58:14;;;;;;;5.03;2.00;;;;;;;16.57;55.78;98614.37;4488384;31;20114;-77
2022/05/31 01:00:40;;;;;;;8.95;2.53;;;;;;;16.64;55.71;98612.91;4499407;31;20087;-78
2022/05/31 01:03:07;;;;;;;7.78;2.42;;;;;;;16.32;56.08;98615.53;4488258;31;20106;-78
2022/05/31 01:05:34;;;;;;;7.32;2.67;;;;;;;16.50;55.52;98610.53;4487890;31;20398;-78
2022/05/31 01:08:00;;;;;;;4.90;1.85;;;;;;;16.50;55.58;98616.69;4502438;31;20092;-78
2022/05/31 01:10:26;;;;;;;5.80;1.73;;;;;;;16.57;55.39;98619.69;4502479;31;20084;-78
2022/05/31 01:12:52;;;;;;;7.72;2.30;;;;;;;16.62;55.30;98622.00;4488096;31;20450;-78
2022/05/31 01:15:18;;;;;;;5.12;1.75;;;;;;;16.66;55.23;98618.09;4488019;31;20127;-78
2022/05/31 01:17:44;;;;;;;6.30;1.90;;;;;;;16.68;55.17;98632.13;4488103;31;20435;-78
2022/05/31 01:20:12;;;;;;;5.30;1.90;;;;;;;16.69;55.06;98625.84;4487993;31;20104;-78
2022/05/31 01:22:45;;;;;;;;;;;;;;;16.69;54.93;98628.50;4488292;31;20443;-77
2022/05/31 01:25:37;;;;;;;5.80;1.87;;;;;;;16.69;54.75;98626.69;4502178;31;20302;-77
2022/05/31 01:28:21;;;;;;;6.80;1.90;;;;;;;16.69;54.70;98629.34;4487810;31;20125;-77
2022/05/31 01:30:56;;;;;;;5.82;2.05;;;;;;;16.66;54.73;98632.22;4502213;31;20088;-77
2022/05/31 01:33:40;;;;;;;5.57;1.73;;;;;;;16.46;55.06;98641.03;4487919;31;20103;-77
2022/05/31 01:36:30;;;;;;;5.62;2.10;;;;;;;16.60;54.74;98639.88;4487742;31;20172;-77
2022/05/31 01:39:01;;;;;;;4.60;1.77;;;;;;;16.54;54.80;98643.06;4489556;31;20114;-77
2022/05/31 01:41:30;;;;;;;5.93;1.98;;;;;;;16.55;54.78;98634.94;4504125;31;20126;-78
2022/05/31 01:43:56;;;;;;;6.43;1.87;;;;;;;16.55;54.83;98642.91;4503974;31;20077;-77
2022/05/31 01:46:33;;;;;;;6.22;1.92;;;;;;;16.33;55.52;98643.81;4489768;31;20163;-77
2022/05/31 01:49:02;;;;;;;4.70;1.80;;;;;;;16.44;55.24;98646.44;4489681;31;20171;-77
2022/05/31 01:51:28;;;;;;;4.82;1.90;;;;;;;16.48;55.02;98647.88;4489722;31;20088;-77
2022/05/31 01:53:54;;;;;;;5.68;1.90;;;;;;;16.51;54.94;98652.09;4476338;31;20115;-77
2022/05/31 01:56:20;;;;;;;5.75;1.80;;;;;;;16.51;55.01;98652.09;4489632;31;20478;-78
2022/05/31 01:58:48;;;;;;;5.62;1.60;;;;;;;16.53;55.08;98647.50;4503994;31;20371;-78
2022/05/31 02:01:14;;;;;;;;;;;;;;;16.47;55.10;98651.50;4490126;31;20132;-78
2022/05/31 02:03:40;;;;;;;3.40;1.27;;;;;;;16.56;54.90;98654.41;4476445;31;20012;-77
2022/05/31 02:06:28;;;;;;;6.07;1.62;;;;;;;16.55;54.83;98658.84;4503638;31;20115;-77
2022/05/31 02:08:54;;;;;;;6.65;1.87;;;;;;;16.47;54.97;98648.00;4489699;31;20474;-78
2022/05/31 02:11:20;;;;;;;5.00;1.62;;;;;;;16.45;54.98;98650.78;4489519;31;20095;-78
2022/05/31 02:13:46;;;;;;;4.85;1.65;;;;;;;16.52;54.82;98654.66;4489485;31;20100;-78
2022/05/31 02:16:13;;;;;;;6.43;1.80;;;;;;;16.52;54.85;98657.31;4489528;31;20413;-78
2022/05/31 02:21:22;;;;;;;5.65;1.90;;;;;;;16.44;55.21;98656.25;4503786;31;20114;-78
2022/05/31 02:23:48;;;;;;;6.35;2.30;;;;;;;16.44;55.25;98646.44;4503730;31;20080;-78
2022/05/31 02:26:13;;;;;;;6.10;2.03;;;;;;;16.18;56.07;98656.50;4503588;31;20155;-78
2022/05/31 02:28:39;;;;;;;10.15;2.30;;;;;;;16.24;55.87;98653.34;4489351;31;20099;-78
2022/05/31 02:31:04;;;;;;;8.60;2.60;;;;;;;16.08;56.46;98658.22;4503678;31;20095;-78
2022/05/31 02:33:29;;;;;;;5.28;2.12;;;;;;;15.99;56.73;98659.78;4503498;31;20088;-78
2022/05/31 02:35:55;;;;;;;6.90;2.25;;;;;;;16.14;56.36;98649.75;4503553;31;20097;-78
2022/05/31 02:38:20;;;;;;;8.05;2.30;;;;;;;15.79;57.69;98655.22;4503556;31;20092;-78
2022/05/31 02:40:45;;;;;;;6.82;2.47;;;;;;;15.90;57.41;98664.03;4503551;31;20241;-78
2022/05/31 02:43:11;;;;;;;8.65;2.53;;;;;;;15.86;57.46;98661.75;4489123;31;20364;-78
2022/05/31 02:45:36;;;;;;;7.05;2.37;;;;;;;15.89;57.42;98664.97;4503511;31;20144;-78
2022/05/31 02:48:02;;;;;;;6.18;1.95;;;;;;;16.04;57.10;98678.03;4503479;31;20092;-78
2022/05/31 02:50:28;;;;;;;7.62;2.78;;;;;;;16.11;56.82;98663.31;4502884;31;20119;-78
2022/05/31 02:52:53;;;;;;;7.18;2.17;;;;;;;16.09;56.91;98668.72;4503579;31;20119;-78
2022/05/31 02:55:18;;;;;;;6.97;2.22;;;;;;;16.11;56.80;98674.78;4489258;31;20517;-78
2022/05/31 02:57:44;;;;;;;8.40;2.50;;;;;;;16.21;56.58;98660.75;4503576;31;20092;-78
2022/05/31 03:00:10;;;;;;;6.20;2.03;;;;;;;16.19;56.54;98658.22;4503540;31;20083;-79
2022/05/31 03:02:37;;;;;;;6.15;1.85;;;;;;;16.30;56.27;98665.31;4503443;31;20096;-79
2022/05/31 03:05:03;;;;;;;6.22;2.25;;;;;;;16.34;56.15;98664.12;4475583;31;20403;-80
2022/05/31 03:07:28;;;;;;;6.18;1.98;;;;;;;16.42;55.96;98663.50;4503417;31;20114;-81
2022/05/31 03:09:54;;;;;;;5.35;1.85;;;;;;;16.46;55.87;98660.47;4503467;31;20099;-82
2022/05/31 03:12:19;;;;;;;6.20;2.00;;;;;;;16.38;56.02;98668.22;4503334;31;20436;-79
2022/05/31 03:14:49;;;;;;;6.68;2.12;;;;;;;16.38;55.93;98659.37;4503365;31;20084;-81
2022/05/31 03:17:31;;;;;;;6.55;2.12;;;;;;;16.50;55.62;98667.22;4501819;31;20087;-77
2022/05/31 03:20:10;;;;;;;6.37;2.05;;;;;;;16.67;55.25;98667.69;4472448;32;20084;-79
2022/05/31 03:22:47;;;;;;;5.50;1.85;;;;;;;16.71;54.87;98661.97;4473189;32;20428;-78
2022/05/31 03:25:21;;;;;;;7.03;2.10;;;;;;;16.69;54.93;98655.09;4487418;32;20436;-79
2022/05/31 03:27:48;;;;;;;4.22;1.60;;;;;;;16.77;54.83;98657.13;4487542;32;20161;-80
2022/05/31 03:30:14;;;;;;;4.53;1.70;;;;;;;16.84;54.69;98653.00;4473127;32;20473;-78
2022/05/31 03:32:39;;;;;;;5.55;1.90;;;;;;;16.85;54.65;98652.87;4473071;32;20376;-79
2022/05/31 03:35:06;;;;;;;5.75;2.10;;;;;;;17.00;54.30;98657.94;4486136;32;20092;-79
2022/05/31 03:37:31;;;;;;;6.43;2.10;;;;;;;17.12;53.69;98656.06;4472898;32;20118;-79
2022/05/31 03:39:56;;;;;;;5.95;1.77;;;;;;;17.10;53.74;98657.00;4486990;32;20081;-80
2022/05/31 03:42:22;;;;;;;7.25;1.92;;;;;;;17.10;53.87;98657.00;4487286;32;20363;-79
2022/05/31 03:44:47;;;;;;;6.90;1.75;;;;;;;17.29;53.53;98658.97;4472779;32;20119;-79
2022/05/31 03:47:13;;;;;;;5.57;1.58;;;;;;;17.13;53.76;98657.72;4487351;32;20166;-79
2022/05/31 03:49:38;;;;;;;6.90;1.87;;;;;;;17.37;53.27;98661.00;4486018;32;20119;-79
2022/05/31 03:52:04;;;;;;;5.35;1.85;;;;;;;17.27;53.41;98665.41;4487174;32;20344;-80
2022/05/31 03:54:30;;;;;;;4.87;1.62;;;;;;;17.59;52.69;98656.50;4487242;32;20372;-79
2022/05/31 03:56:56;;;;;;;3.97;1.50;;;;;;;17.67;52.19;98660.19;4487214;32;20434;-79
2022/05/31 03:59:21;;;;;;;5.10;1.50;;;;;;;17.93;51.46;98666.94;4472959;32;20083;-78
2022/05/31 04:01:46;;;;;;;4.45;1.48;;;;;;;17.89;51.71;98661.03;4487225;32;20092;-79
2022/05/31 04:04:12;;;;;;;3.70;1.60;;;;;;;18.10;51.14;98663.66;4485937;32;20128;-79
2022/05/31 04:06:38;;;;;;;3.12;1.50;;;;;;;18.24;50.66;98659.78;4487127;32;20428;-81
2022/05/31 04:09:04;;;;;;;4.72;1.37;;;;;;;18.31;50.59;98668.06;4487352;32;20110;-80
2022/05/31 04:11:29;;;;;;;4.55;1.40;;;;;;;18.45;50.29;98663.19;4487227;32;20081;-79
2022/05/31 04:13:55;;;;;;;3.72;1.40;;;;;;;18.69;49.36;98666.47;4487301;32;20080;-80
2022/05/31 04:16:21;;;;;;;3.25;1.30;;;;;;;18.83;49.27;98660.75;4464078;31;20115;-80
2022/05/31 04:18:46;;;;;;;5.50;1.50;;;;;;;18.84;48.95;98665.94;4495574;31;20110;-80
2022/05/31 04:21:16;;;;;;;6.22;1.73;;;;;;;19.00;48.76;98660.06;4488756;31;20107;-80
2022/05/31 04:23:59;;;;;;;4.72;1.60;;;;;;;19.09;48.68;98662.88;4488737;31;20131;-81
2022/05/31 04:26:30;;;;;;;4.40;1.60;;;;;;;19.20;48.98;98668.91;4490447;31;20095;-82
2022/05/31 04:28:55;;;;;;;3.72;1.55;;;;;;;19.35;48.72;98658.63;4488573;31;20244;-82
2022/05/31 04:31:21;;;;;;;8.60;1.70;;;;;;;19.64;48.38;98660.41;4502667;31;20096;-80
2022/05/31 04:33:50;;;;;;;4.25;1.60;;;;;;;19.70;48.02;98662.50;4502580;31;20131;-80
2022/05/31 04:36:17;;;;;;;5.55;1.92;;;;;;;19.99;47.41;98658.91;4475241;31;20463;-79
2022/05/31 04:38:43;;;;;;;3.45;1.58;;;;;;;20.08;47.28;98654.53;4488339;31;20370;-80
2022/05/31 04:41:16;;;;;;;6.32;1.73;;;;;;;20.35;45.93;98659.03;4488273;31;20123;-81
2022/05/31 04:43:41;;;;;;;5.78;1.52;;;;;;;20.46;45.33;98658.84;4488402;31;20096;-81
2022/05/31 04:46:15;;;;;;;3.17;1.40;;;;;;;20.48;45.37;98654.19;4502860;31;20187;-82
2022/05/31 04:48:41;;;;;;;4.55;1.58;;;;;;;20.52;45.21;98662.75;4503098;31;20105;-81
2022/05/31 04:51:06;;;;;;;5.72;1.60;;;;;;;20.55;45.04;98665.09;4502482;31;20080;-81
2022/05/31 04:53:32;;;;;;;2.97;1.58;;;;;;;20.69;44.61;98663.81;4502627;31;20408;-80
2022/05/31 04:56:06;;;;;;;3.42;1.40;;;;;;;20.69;44.44;98669.16;4488196;31;20148;-81
2022/05/31 04:58:32;;;;;;;3.20;1.40;;;;;;;20.89;43.92;98669.84;4488275;31;20114;-81
2022/05/31 05:00:59;;;;;;;4.20;1.37;;;;;;;21.01;43.54;98665.94;4487355;31;20083;-79
2022/05/31 05:03:25;;;;;;;3.78;1.30;;;;;;;21.14;43.14;98665.56;4487180;31;20116;-80
2022/05/31 05:05:50;;;;;;;4.53;1.30;;;;;;;21.17;43.55;98657.19;4502235;31;20125;-81
2022/05/31 05:08:15;;;;;;;3.42;1.40;;;;;;;21.23;43.31;98659.28;4502362;31;20099;-81
2022/05/31 05:10:45;;;;;;;4.70;1.37;;;;;;;21.32;42.02;98658.34;4488099;31;20084;-81
2022/05/31 05:13:10;;;;;;;5.05;1.37;;;;;;;21.27;42.07;98654.47;4487603;31;20096;-80
2022/05/31 05:15:40;;;;;;;4.45;1.48;;;;;;;21.23;42.00;98655.75;4502350;31;20110;-80
2022/05/31 05:18:05;;;;;;;5.18;1.40;;;;;;;21.33;42.57;98661.88;4502386;31;20080;-81
2022/05/31 05:20:33;;;;;;;4.65;1.35;;;;;;;21.13;43.33;98656.69;4487951;31;20105;-81
2022/05/31 05:22:59;;;;;;;5.45;1.30;;;;;;;21.28;43.37;98656.97;4487884;31;20617;-80
2022/05/31 05:25:24;;;;;;;4.87;1.73;;;;;;;21.64;42.52;98656.94;4502191;31;20102;-80
2022/05/31 05:27:49;;;;;;;7.18;1.80;;;;;;;21.70;42.49;98663.50;4502176;31;20133;-80
2022/05/31 05:32:59;;;;;;;6.97;2.20;;;;;;;22.05;41.20;98664.38;4490055;31;20196;-81
2022/05/31 05:35:24;;;;;;;6.80;2.35;;;;;;;22.27;40.51;98658.47;4502004;31;20088;-80
2022/05/31 05:37:50;;;;;;;8.38;2.53;;;;;;;22.29;40.51;98663.66;4502048;31;20447;-80
2022/05/31 05:40:15;;;;;;;5.18;1.87;;;;;;;22.34;39.88;98667.53;4487398;31;20113;-80
2022/05/31 05:42:41;;;;;;;5.43;1.70;;;;;;;22.36;40.07;98673.59;4501921;31;20088;-79
2022/05/31 05:45:08;;;;;;;4.80;1.60;;;;;;;22.38;39.72;98673.44;4487653;31;20118;-78
2022/05/31 05:47:33;;;;;;;7.18;1.60;;;;;;;22.38;39.79;98668.91;4501941;31;20107;-79
2022/05/31 05:49:58;;;;;;;3.35;1.40;;;;;;;22.41;39.87;98665.06;4501870;31;20135;-79
2022/05/31 05:52:24;;;;;;;5.93;1.70;;;;;;;22.64;38.45;98665.31;4501894;31;20427;-79
2022/05/31 05:54:49;;;;;;;6.65;2.10;;;;;;;22.70;39.10;98661.97;4487409;31;20332;-79
2022/05/31 05:57:15;;;;;;;4.45;1.70;;;;;;;22.71;38.98;98669.00;4501745;31;20072;-79
2022/05/31 05:59:40;;;;;;;5.47;2.00;;;;;;;22.95;38.52;98672.75;4501740;31;20106;-79
2022/05/31 06:02:21;;;;;;;4.47;1.50;;;;;;;22.93;38.62;98672.09;4487231;31;20406;-79
2022/05/31 06:04:52;;;;;;;4.15;1.45;;;;;;;22.99;38.84;98676.78;4501541;31;20210;-80
2022/05/31 06:07:26;;;;;;;5.10;1.50;;;;;;;23.08;37.99;98666.91;4474674;31;20076;-79
2022/05/31 06:09:57;;;;;;;6.28;1.87;;;;;;;23.19;37.66;98668.44;4487159;31;20118;-79
2022/05/31 06:12:25;;;;;;;5.60;1.77;;;;;;;23.28;36.96;98675.50;4501675;31;20096;-80
2022/05/31 06:14:57;;;;;;;4.22;1.40;;;;;;;23.22;37.21;98673.47;4501518;31;20089;-79
2022/05/31 06:17:26;;;;;;;5.05;1.50;;;;;;;23.21;37.58;98679.88;4487245;31;20160;-79
2022/05/31 06:19:51;;;;;;;4.68;1.50;;;;;;;23.25;37.57;98675.81;4501349;31;20071;-79
2022/05/31 06:22:18;;;;;;;3.35;1.20;;;;;;;23.43;37.44;98672.97;4501369;31;20107;-80
2022/05/31 06:24:44;;;;;;;4.65;1.70;;;;;;;23.51;37.60;98681.03;4487953;31;20095;-79
2022/05/31 06:27:09;;;;;;;4.57;1.30;;;;;;;23.62;36.89;98679.84;4503751;31;20084;-79
2022/05/31 06:29:35;;;;;;;5.37;1.42;;;;;;;23.67;36.36;98682.87;4503764;31;20064;-79
2022/05/31 06:32:00;;;;;;;5.43;1.90;;;;;;;23.75;36.27;98675.63;4476184;31;20138;-80
2022/05/31 06:34:26;;;;;;;5.80;1.73;;;;;;;23.86;35.67;98679.00;4503634;31;20118;-80
2022/05/31 06:37:06;;;;;;;7.20;1.77;;;;;;;24.03;35.66;98679.78;4503605;31;20132;-81
2022/05/31 06:39:35;;;;;;;6.28;1.85;;;;;;;23.99;36.08;98686.53;4503595;31;20088;-83
2022/05/31 06:42:00;;;;;;;7.68;2.40;;;;;;;24.03;35.76;98688.72;4503514;31;20122;-83
2022/05/31 06:44:26;;;;;;;9.30;2.40;;;;;;;24.08;36.12;98688.19;4503288;31;20084;-84
2022/05/31 06:46:51;;;;;;;6.87;2.35;;;;;;;23.97;36.42;98699.31;4489306;31;20445;-83
2022/05/31 06:49:16;;;;;;;7.37;2.20;;;;;;;24.12;35.86;98700.28;4503577;31;20157;-81
2022/05/31 06:57:11;;;;;;;7.32;2.90;;;;;;;24.29;35.83;98699.22;4491528;31;20559;-85
2022/05/31 06:59:37;;;;;;;10.82;3.30;;;;;;;24.39;35.65;98701.72;4503727;31;20081;-86
2022/05/31 07:02:06;;;;;;;8.33;3.17;;;;;;;24.50;35.58;98695.94;4503836;31;20134;-84
2022/05/31 07:04:35;;;;;;;7.40;3.33;;;;;;;24.41;36.46;98691.59;4505314;31;20118;-83
2022/05/31 07:07:01;;;;;;;9.90;3.33;;;;;;;24.39;36.74;98692.78;4503487;31;20391;-82
2022/05/31 07:09:27;;;;;;;9.40;3.10;;;;;;;24.38;36.30;98691.97;4503929;31;20056;-85
2022/05/31 07:11:55;;;;;;;10.75;3.05;;;;;;;24.38;35.69;98686.59;4502771;31;20118;-82
2022/05/31 07:14:21;;;;;;;10.43;3.20;;;;;;;24.43;35.42;98688.75;4502466;31;20096;-83
2022/05/31 07:16:46;;;;;;;9.98;3.47;;;;;;;24.47;35.61;98693.62;4503313;31;20109;-83
2022/05/31 07:19:11;;;;;;;9.30;3.28;;;;;;;24.59;34.97;98688.72;4503364;31;20079;-84
2022/05/31 07:21:37;;;;;;;8.00;3.67;;;;;;;24.47;35.07;98690.91;4503313;31;20158;-84
2022/05/31 07:24:02;;;;;;;11.05;3.70;;;;;;;24.46;35.04;98694.62;4503200;31;20427;-84
2022/05/31 07:26:28;;;;;;;8.70;3.00;;;;;;;24.58;34.92;98696.97;4503223;31;20102;-83
2022/05/31 07:28:54;;;;;;;7.15;2.78;;;;;;;24.52;35.24;98699.31;4503209;31;20080;-84
2022/05/31 07:31:19;;;;;;;9.43;2.45;;;;;;;24.47;35.12;98698.13;4488827;31;20143;-84
2022/05/31 07:33:44;;;;;;;6.93;3.05;;;;;;;24.57;34.72;98706.03;4503146;31;20435;-84
2022/05/31 07:36:10;;;;;;;8.98;2.78;;;;;;;24.49;34.77;98699.66;4502829;31;20088;-84
2022/05/31 07:38:36;;;;;;;9.30;2.80;;;;;;;24.48;34.89;98703.34;4503125;31;20091;-84
2022/05/31 07:41:01;;;;;;;9.18;2.85;;;;;;;24.49;34.69;98702.34;4503285;31;20123;-83
2022/05/31 07:43:27;;;;;;;8.00;2.90;;;;;;;24.71;33.98;98703.44;4503123;31;20137;-83
2022/05/31 07:46:05;;;;;;;10.18;3.72;;;;;;;24.74;33.46;98702.25;4503075;31;20485;-84
2022/05/31 07:48:31;;;;;;;8.50;3.25;;;;;;;24.49;33.93;98701.50;4475921;31;20501;-83
2022/05/31 07:50:56;;;;;;;9.07;3.20;;;;;;;24.66;33.63;98703.13;4503099;31;20103;-84
2022/05/31 07:53:21;;;;;;;9.98;3.53;;;;;;;24.80;34.06;98704.25;4503158;31;20118;-83
2022/05/31 07:55:57;;;;;;;10.93;3.45;;;;;;;24.81;33.94;98708.62;4502981;31;20084;-84
2022/05/31 07:58:32;;;;;;;9.57;3.85;;;;;;;24.93;33.52;98714.44;4503327;31;20075;-84
2022/05/31 08:00:59;;;;;;;9.75;3.37;;;;;;;24.92;33.17;98710.91;4490182;31;20119;-84
2022/05/31 08:03:25;;;;;;;9.48;3.47;;;;;;;25.02;33.37;98717.94;4503307;31;20119;-84
2022/05/31 08:05:51;;;;;;;9.98;3.67;;;;;;;25.05;33.66;98714.88;4503005;31;20088;-84
2022/05/31 08:08:16;;;;;;;7.87;2.97;;;;;;;24.99;33.81;98713.72;4488578;31;20395;-84
2022/05/31 08:10:41;;;;;;;10.27;3.12;;;;;;;25.26;33.41;98716.94;4488627;31;20112;-84
2022/05/31 08:13:07;;;;;;;8.98;3.00;;;;;;;25.39;33.20;98716.34;4502925;31;20091;-83
2022/05/31 08:15:33;;;;;;;7.57;2.60;;;;;;;25.36;32.04;98705.91;4502919;31;20100;-83
2022/05/31 08:17:58;;;;;;;9.00;2.72;;;;;;;25.43;32.34;98714.97;4488758;31;20080;-83
2022/05/31 08:20:24;;;;;;;8.63;2.87;;;;;;;25.40;32.86;98726.97;4503225;31;20127;-84
2022/05/31 08:22:49;;;;;;;8.60;3.37;;;;;;;25.36;32.71;98725.63;4503169;31;20485;-84
2022/05/31 08:25:15;;;;;;;9.15;2.80;;;;;;;25.28;32.65;98723.84;4503116;31;20416;-84
2022/05/31 08:27:41;;;;;;;9.45;3.28;;;;;;;25.37;33.50;98718.41;4488845;31;20102;-83
2022/05/31 08:30:07;;;;;;;8.40;3.10;;;;;;;25.42;33.28;98715.97;4502781;31;20100;-84
2022/05/31 08:32:34;;;;;;;10.15;3.17;;;;;;;25.45;32.84;98721.03;4502791;31;20091;-83
2022/05/31 08:35:00;;;;;;;9.70;3.10;;;;;;;25.56;32.48;98725.16;4502807;31;20083;-84
2022/05/31 08:37:26;;;;;;;9.57;3.20;;;;;;;25.65;32.04;98726.75;4488503;31;20098;-84
2022/05/31 08:39:51;;;;;;;9.60;2.87;;;;;;;25.60;32.25;98731.88;4502712;31;20122;-84
2022/05/31 08:42:22;;;;;;;13.07;3.83;;;;;;;25.62;32.10;98736.06;4488495;31;20399;-84
2022/05/31 08:44:51;;;;;;;13.65;3.85;;;;;;;25.72;32.85;98726.88;4475202;31;20127;-84
2022/05/31 08:47:31;;;;;;;10.65;3.40;;;;;;;25.95;32.38;98724.16;4501807;31;20088;-84
2022/05/31 08:53:05;;;;;;;8.43;2.80;;;;;;;26.12;31.95;98727.53;4502736;31;20397;-83
2022/05/31 08:58:35;;;;;;;8.18;3.00;;;;;;;26.08;31.99;98719.78;4490571;31;20462;-84
2022/05/31 09:01:02;;;;;;;8.43;3.10;;;;;;;26.06;32.49;98713.75;4488311;31;20117;-84
2022/05/31 09:03:30;;;;;;;;;;;;;;;26.20;32.33;98716.62;4482407;31;197598;-83
2022/05/31 09:05:57;;;;;;;10.35;3.78;;;;;;;26.20;31.47;98722.88;4502332;31;19986;-84
2022/05/31 09:08:24;;;;;;;;;;;;;;;26.25;31.72;98715.06;4488373;31;20110;-83
2022/05/31 09:11:08;;;;;;;8.88;2.50;;;;;;;26.44;31.55;98704.69;4502484;31;19979;-84
2022/05/31 09:13:38;;;;;;;8.90;3.45;;;;;;;26.66;32.13;98709.19;4488252;31;20115;-83
2022/05/31 09:16:29;;;;;;;12.15;3.30;;;;;;;26.79;31.22;98711.22;4488080;31;20451;-83
2022/05/31 09:19:04;;;;;;;10.90;2.90;;;;;;;26.80;30.83;98710.16;4488231;31;20118;-83
2022/05/31 09:21:34;;;;;;;7.65;2.70;;;;;;;26.84;30.91;98706.06;4474864;31;20112;-84
2022/05/31 09:24:00;;;;;;;10.68;2.50;;;;;;;26.83;31.27;98706.22;4502332;31;20126;-83
2022/05/31 09:26:51;;;;;;;10.63;3.00;;;;;;;26.85;31.20;98713.16;4502088;31;20080;-83
2022/05/31 09:29:54;;;;;;;8.45;2.75;;;;;;;26.81;31.27;98717.25;4488082;31;20110;-84
2022/05/31 09:32:41;;;;;;;9.98;2.95;;;;;;;26.93;31.10;98705.97;4502162;31;20088;-84
2022/05/31 09:35:35;;;;;;;9.50;2.87;;;;;;;26.95;30.90;98706.59;4502181;31;20083;-83
2022/05/31 09:38:32;;;;;;;8.95;2.55;;;;;;;27.24;30.57;98711.06;4502117;31;20416;-83
2022/05/31 09:41:08;;;;;;;10.75;2.80;;;;;;;27.42;30.31;98707.94;4421791;32;20607;-83
2022/05/31 09:43:39;;;;;;;10.07;2.70;;;;;;;27.36;30.67;98708.72;4422039;32;20163;-83
2022/05/31 09:46:11;;;;;;;9.38;2.70;;;;;;;27.59;30.35;98703.91;4421776;32;20089;-83
2022/05/31 09:48:48;;;;;;;8.50;2.87;;;;;;;27.57;30.42;98707.84;4421861;32;20120;-84
2022/05/31 09:51:41;;;;;;;9.75;3.25;;;;;;;27.68;30.52;98706.47;4421872;32;20102;-84
2022/05/31 09:57:07;;;;;;;12.73;2.90;;;;;;;27.76;29.85;98703.66;4421792;32;20132;-83
2022/05/31 09:59:35;;;;;;;8.95;3.03;;;;;;;27.89;30.08;98702.91;4399305;32;20179;-83
2022/05/31 10:02:25;;;;;;;9.07;2.75;;;;;;;27.97;29.70;98698.19;4398137;32;20094;-83
2022/05/31 10:05:09;;;;;;;7.20;2.35;;;;;;;28.06;29.99;98698.03;4423405;32;20171;-83
2022/05/31 10:07:37;;;;;;;8.48;3.22;;;;;;;28.11;29.83;98692.88;4423705;32;20131;-83
2022/05/31 10:10:08;;;;;;;9.35;3.00;;;;;;;28.04;29.47;98696.34;4410745;32;20432;-83
2022/05/31 10:12:34;;;;;;;9.27;3.03;;;;;;;28.06;29.82;98681.78;4423640;32;20081;-84
2022/05/31 10:15:03;;;;;;;11.90;3.28;;;;;;;28.02;30.48;98687.59;4423739;32;20114;-84
2022/05/31 10:17:37;;;;;;;9.30;2.80;;;;;;;28.14;30.08;98696.00;4452139;31;20156;-83
2022/05/31 10:20:22;;;;;;;11.20;3.15;;;;;;;28.18;30.03;98691.00;4503792;31;20132;-83
2022/05/31 10:23:02;;;;;;;10.52;2.90;;;;;;;28.13;29.69;98694.34;4489517;31;20103;-83
2022/05/31 10:25:34;;;;;;;9.90;2.80;;;;;;;28.11;29.71;98691.00;4503711;31;20145;-83
2022/05/31 10:28:05;;;;;;;8.90;3.12;;;;;;;28.20;29.76;98680.81;4503796;31;20147;-84
2022/05/31 10:30:32;;;;;;;10.05;2.83;;;;;;;28.40;29.47;98683.66;4489282;31;20117;-84
2022/05/31 10:33:03;;;;;;;8.90;2.80;;;;;;;28.28;29.54;98687.94;4489541;31;20515;-84
2022/05/31 10:35:32;;;;;;;11.80;3.50;;;;;;;28.33;29.59;98688.19;4503665;31;20163;-84
2022/05/31 10:38:17;;;;;;;8.73;3.12;;;;;;;28.17;29.73;98689.34;4489367;31;20428;-83
2022/05/31 10:40:46;;;;;;;9.68;2.90;;;;;;;28.16;30.17;98690.37;4503624;31;20088;-83
2022/05/31 10:43:37;;;;;;;11.55;2.92;;;;;;;28.02;30.52;98689.47;4489230;31;20084;-83
2022/05/31 10:46:09;;;;;;;8.57;3.05;;;;;;;27.81;30.98;98684.91;4500441;31;20160;-83
2022/05/31 10:48:41;;;;;;;10.48;3.37;;;;;;;27.72;30.83;98686.97;4503679;31;20166;-83
2022/05/31 10:51:12;;;;;;;10.07;3.10;;;;;;;27.58;30.99;98687.88;4503598;31;20162;-83
2022/05/31 10:53:47;;;;;;;10.48;3.15;;;;;;;27.54;31.17;98682.00;4489490;31;20109;-83
2022/05/31 10:56:16;;;;;;;11.88;3.33;;;;;;;27.56;31.22;98690.75;4503469;31;20105;-83
2022/05/31 10:58:58;;;;;;;10.80;3.00;;;;;;;27.52;30.77;98689.47;4489106;31;20130;-83
2022/05/31 11:01:44;;;;;;;10.55;3.22;;;;;;;27.51;30.88;98690.53;4489487;31;20088;-84
2022/05/31 11:04:25;;;;;;;11.02;3.50;;;;;;;27.60;31.19;98689.37;4488965;31;20398;-84
2022/05/31 11:07:28;;;;;;;11.48;4.00;;;;;;;27.54;31.35;98692.00;4503390;31;20169;-84
2022/05/31 11:13:13;;;;;;;7.62;2.80;;;;;;;27.36;31.59;98689.78;4491390;31;20114;-83
2022/05/31 11:15:57;;;;;;;9.73;3.30;;;;;;;27.32;31.60;98683.91;4503361;31;20194;-83
2022/05/31 11:18:45;;;;;;;11.07;3.12;;;;;;;27.24;31.16;98675.91;4488953;31;20126;-83
2022/05/31 11:21:25;;;;;;;10.27;3.17;;;;;;;27.19;31.56;98676.47;4489060;31;20418;-84
2022/05/31 11:24:20;;;;;;;10.13;3.05;;;;;;;27.21;31.77;98676.28;4503288;31;20158;-83
2022/05/31 11:27:04;;;;;;;10.93;2.90;;;;;;;27.04;31.80;98671.12;4503321;31;20144;-83
2022/05/31 11:29:42;;;;;;;9.48;3.28;;;;;;;26.87;32.07;98673.25;4489064;31;20471;-84
2022/05/31 11:32:20;;;;;;;8.82;3.05;;;;;;;26.63;32.26;98679.81;4503441;31;20136;-83
2022/05/31 11:35:19;;;;;;;8.30;2.90;;;;;;;26.66;32.97;98674.03;4503288;31;20110;-83
2022/05/31 11:38:03;;;;;;;;;;;;;;;26.72;32.05;98661.63;4423594;32;20113;-83
2022/05/31 11:40:43;;;;;;;9.07;3.10;;;;;;;26.62;31.95;98664.66;4397585;32;20324;-83
2022/05/31 11:43:21;;;;;;;8.48;3.40;;;;;;;26.54;32.61;98671.97;4423088;32;20189;-83
2022/05/31 11:45:49;;;;;;;8.30;2.90;;;;;;;26.51;32.48;98666.97;4422889;32;20121;-83
2022/05/31 11:48:28;;;;;;;8.20;3.33;;;;;;;26.41;32.83;98669.97;4423139;32;20389;-83
2022/05/31 11:51:17;;;;;;;9.52;3.08;;;;;;;26.30;32.57;98660.47;4410342;32;20118;-83
2022/05/31 11:54:07;;;;;;;8.80;2.95;;;;;;;26.18;32.58;98657.41;4423097;32;20162;-83
2022/05/31 11:56:53;;;;;;;8.93;2.95;;;;;;;26.24;32.91;98656.66;4423002;32;20097;-83
2022/05/31 11:59:25;;;;;;;8.75;2.62;;;;;;;26.17;33.14;98658.41;4410323;32;20742;-84
2022/05/31 12:01:55;;;;;;;10.13;3.00;;;;;;;26.24;33.24;98645.84;4422860;32;20149;-83
2022/05/31 12:04:40;;;;;;;10.57;3.00;;;;;;;26.19;33.40;98655.53;4410142;32;20101;-84
2022/05/31 12:07:18;;;;;;;10.02;3.20;;;;;;;26.15;33.39;98648.84;4410247;32;20124;-83
2022/05/31 12:09:44;;;;;;;9.70;2.75;;;;;;;26.15;33.30;98649.69;4397402;32;20093;-83
2022/05/31 12:12:14;;;;;;;7.68;3.10;;;;;;;25.96;33.55;98645.69;4422800;32;20580;-83